createdAt,value
2018-05-04T00:00:45.077Z,7.40
2018-05-04T00:03:12.576Z,7.40
2018-05-04T00:05:40.113Z,7.40
2018-05-04T00:08:07.629Z,7.30
2018-05-04T00:10:35.226Z,7.30
2018-05-04T00:13:02.743Z,7.30
2018-05-04T00:15:30.249Z,7.30
2018-05-04T00:17:58.575Z,7.20
2018-05-04T00:20:26.084Z,7.20
2018-05-04T00:22:53.620Z,7.20
2018-05-04T00:25:21.180Z,7.00
2018-05-04T00:27:48.689Z,6.80
2018-05-04T00:30:16.986Z,6.60
2018-05-04T00:32:44.504Z,6.60
2018-05-04T00:35:12.782Z,7.00
2018-05-04T00:37:40.312Z,6.90
2018-05-04T00:40:07.854Z,6.90
2018-05-04T00:42:35.413Z,6.80
2018-05-04T00:45:02.934Z,6.60
2018-05-04T00:47:31.238Z,6.70
2018-05-04T00:49:58.733Z,6.60
2018-05-04T00:52:26.318Z,6.80
2018-05-04T00:54:54.734Z,6.80
2018-05-04T00:57:22.247Z,6.70
2018-05-04T00:59:50.534Z,6.70
2018-05-04T01:02:18.922Z,6.70
2018-05-04T01:04:46.446Z,6.70
2018-05-04T01:07:13.964Z,6.70
2018-05-04T01:09:41.504Z,6.60
2018-05-04T01:12:09.881Z,6.50
2018-05-04T01:14:38.029Z,6.30
2018-05-04T01:17:05.551Z,6.30
2018-05-04T01:19:33.093Z,6.50
2018-05-04T01:22:00.634Z,6.50
2018-05-04T01:24:28.130Z,6.40
2018-05-04T01:26:55.647Z,6.50
2018-05-04T01:29:23.158Z,6.40
2018-05-04T01:31:51.452Z,6.30
2018-05-04T01:34:18.964Z,6.20
2018-05-04T01:36:46.500Z,6.20
2018-05-04T01:39:13.995Z,6.20
2018-05-04T01:41:41.524Z,6.00
2018-05-04T01:44:09.107Z,5.90
2018-05-04T01:46:36.652Z,5.80
2018-05-04T01:49:04.795Z,5.80
2018-05-04T01:51:32.364Z,6.10
2018-05-04T01:53:59.878Z,6.10
2018-05-04T01:56:27.378Z,6.20
2018-05-04T01:58:55.386Z,6.10
2018-05-04T02:01:23.027Z,6.00
2018-05-04T02:03:50.541Z,5.90
2018-05-04T02:06:18.811Z,5.60
2018-05-04T02:08:46.453Z,5.60
2018-05-04T02:11:13.970Z,5.60
2018-05-04T02:13:41.490Z,5.60
2018-05-04T02:16:09.019Z,5.80
2018-05-04T02:18:36.593Z,5.90
2018-05-04T02:21:04.046Z,5.90
2018-05-04T02:23:31.561Z,5.90
2018-05-04T02:25:59.084Z,6.00
2018-05-04T02:28:27.371Z,5.90
2018-05-04T02:30:55.639Z,5.90
2018-05-04T02:33:23.926Z,5.90
2018-05-04T02:35:52.205Z,5.90
2018-05-04T02:38:19.729Z,5.90
2018-05-04T02:40:47.346Z,5.90
2018-05-04T02:43:14.868Z,5.90
2018-05-04T02:45:43.141Z,5.80
2018-05-04T02:48:10.684Z,5.80
2018-05-04T02:50:38.210Z,5.70
2018-05-04T02:53:05.736Z,5.80
2018-05-04T02:55:33.308Z,5.60
2018-05-04T02:58:00.799Z,5.50
2018-05-04T03:00:28.327Z,5.50
2018-05-04T03:02:55.841Z,5.40
2018-05-04T03:05:24.136Z,5.40
2018-05-04T03:07:51.663Z,5.40
2018-05-04T03:10:19.200Z,5.40
2018-05-04T03:12:47.665Z,5.30
2018-05-04T03:15:15.193Z,5.30
2018-05-04T03:17:43.477Z,5.30
2018-05-04T03:20:10.997Z,5.30
2018-05-04T03:22:38.585Z,5.30
2018-05-04T03:25:06.883Z,5.30
2018-05-04T03:27:34.397Z,5.20
2018-05-04T03:30:01.925Z,5.20
2018-05-04T03:32:29.435Z,5.00
2018-05-04T03:34:57.720Z,5.10
2018-05-04T03:37:25.269Z,5.10
2018-05-04T03:39:53.555Z,5.20
2018-05-04T03:42:21.105Z,5.20
2018-05-04T03:44:49.381Z,5.00
2018-05-04T03:47:17.660Z,5.10
2018-05-04T03:49:45.943Z,5.10
2018-05-04T03:52:13.471Z,5.10
2018-05-04T03:54:41.013Z,5.10
2018-05-04T03:57:20.350Z,5.20
2018-05-04T03:59:59.746Z,5.10
2018-05-04T04:02:39.041Z,5.10
2018-05-04T04:05:06.565Z,5.00
2018-05-04T04:07:34.068Z,5.00
2018-05-04T04:10:01.594Z,4.90
2018-05-04T04:12:29.119Z,4.90
2018-05-04T04:14:56.731Z,4.90
2018-05-04T04:17:25.037Z,4.80
2018-05-04T04:19:52.551Z,4.70
2018-05-04T04:22:20.061Z,4.70
2018-05-04T04:24:47.575Z,4.90
2018-05-04T04:27:15.386Z,5.00
2018-05-04T04:29:42.893Z,5.00
2018-05-04T04:32:10.418Z,5.10
2018-05-04T04:34:37.939Z,5.10
2018-05-04T04:37:05.457Z,5.10
2018-05-04T04:39:32.993Z,5.10
2018-05-04T04:42:00.508Z,5.10
2018-05-04T04:44:28.033Z,5.20
2018-05-04T04:46:55.557Z,5.20
2018-05-04T04:49:23.072Z,5.10
2018-05-04T04:51:51.353Z,5.30
2018-05-04T04:54:19.666Z,5.40
2018-05-04T04:56:47.175Z,5.30
2018-05-04T04:59:14.715Z,5.40
2018-05-04T05:01:42.219Z,5.50
2018-05-04T05:04:09.749Z,5.50
2018-05-04T05:06:37.269Z,5.50
2018-05-04T05:09:04.784Z,5.60
2018-05-04T05:11:32.293Z,5.70
2018-05-04T05:13:59.879Z,5.80
2018-05-04T05:16:27.377Z,5.90
2018-05-04T05:18:54.910Z,6.00
2018-05-04T05:21:23.209Z,6.10
2018-05-04T05:23:50.757Z,6.10
2018-05-04T05:26:18.302Z,6.20
2018-05-04T05:28:46.646Z,6.40
2018-05-04T05:31:14.143Z,6.40
2018-05-04T05:33:41.681Z,6.50
2018-05-04T05:36:09.208Z,6.50
2018-05-04T05:38:36.729Z,6.60
2018-05-04T05:41:04.257Z,6.60
2018-05-04T05:43:31.783Z,6.70
2018-05-04T05:45:59.299Z,6.80
2018-05-04T05:48:26.824Z,6.90
2018-05-04T05:50:54.355Z,6.90
2018-05-04T05:53:21.863Z,7.00
2018-05-04T05:55:49.393Z,7.20
2018-05-04T05:58:16.937Z,7.20
2018-05-04T06:00:44.471Z,7.30
2018-05-04T06:03:11.988Z,7.30
2018-05-04T06:05:39.529Z,7.40
2018-05-04T06:08:07.093Z,7.40
2018-05-04T06:10:34.635Z,7.50
2018-05-04T06:13:02.156Z,7.60
2018-05-04T06:15:29.715Z,7.70
2018-05-04T06:17:57.245Z,7.70
2018-05-04T06:20:24.801Z,7.80
2018-05-04T06:22:52.313Z,7.90
2018-05-04T06:25:19.850Z,7.90
2018-05-04T06:27:47.364Z,8.00
2018-05-04T06:30:14.889Z,8.10
2018-05-04T06:32:42.423Z,8.10
2018-05-04T06:35:09.938Z,8.10
2018-05-04T06:37:37.464Z,8.10
2018-05-04T06:40:04.985Z,8.20
2018-05-04T06:42:32.513Z,8.20
2018-05-04T06:45:00.039Z,8.30
2018-05-04T06:47:27.564Z,8.40
2018-05-04T06:49:55.124Z,8.30
2018-05-04T06:52:22.661Z,8.40
2018-05-04T06:54:50.169Z,8.40
2018-05-04T06:57:17.713Z,8.50
2018-05-04T06:59:45.231Z,8.50
2018-05-04T07:02:12.759Z,8.60
2018-05-04T07:04:40.336Z,8.60
2018-05-04T07:07:07.881Z,8.60
2018-05-04T07:09:36.219Z,8.70
2018-05-04T07:12:03.757Z,8.70
2018-05-04T07:14:31.279Z,8.80
2018-05-04T07:16:58.800Z,8.80
2018-05-04T07:19:27.148Z,9.00
2018-05-04T07:21:54.727Z,8.90
2018-05-04T07:24:22.269Z,9.00
2018-05-04T07:26:49.789Z,9.10
2018-05-04T07:29:17.332Z,9.10
2018-05-04T07:31:44.857Z,9.20
2018-05-04T07:34:12.381Z,9.20
2018-05-04T07:36:39.907Z,9.30
2018-05-04T07:39:07.437Z,9.40
2018-05-04T07:41:34.969Z,9.50
2018-05-04T07:44:03.260Z,9.60
2018-05-04T07:46:31.543Z,9.70
2018-05-04T07:48:59.059Z,9.70
2018-05-04T07:51:26.591Z,9.70
2018-05-04T07:53:55.035Z,9.70
2018-05-04T07:56:34.303Z,9.80
2018-05-04T07:59:01.827Z,9.90
2018-05-04T08:01:29.433Z,9.90
2018-05-04T08:03:56.967Z,10.00
2018-05-04T08:06:24.549Z,10.00
2018-05-04T08:08:52.089Z,10.10
2018-05-04T08:11:19.627Z,10.10
2018-05-04T08:13:47.129Z,10.10
2018-05-04T08:16:14.665Z,10.10
2018-05-04T08:18:42.199Z,10.30
2018-05-04T08:21:09.713Z,10.40
2018-05-04T08:23:37.233Z,10.50
2018-05-04T08:26:04.765Z,10.50
2018-05-04T08:28:33.054Z,10.60
2018-05-04T08:31:00.576Z,10.60
2018-05-04T08:33:28.095Z,10.60
2018-05-04T08:35:55.617Z,10.60
2018-05-04T08:38:23.897Z,10.80
2018-05-04T08:40:52.232Z,10.90
2018-05-04T08:43:19.751Z,10.90
2018-05-04T08:45:47.272Z,10.90
2018-05-04T08:48:15.618Z,11.00
2018-05-04T08:50:43.332Z,11.00
2018-05-04T08:53:10.905Z,11.10
2018-05-04T08:55:38.438Z,11.10
2018-05-04T08:58:05.945Z,11.20
2018-05-04T09:00:33.475Z,11.20
2018-05-04T09:03:01.001Z,11.20
2018-05-04T09:05:29.475Z,11.20
2018-05-04T09:07:56.822Z,11.10
2018-05-04T09:10:24.342Z,11.30
2018-05-04T09:12:51.963Z,11.40
2018-05-04T09:15:19.384Z,11.60
2018-05-04T09:17:46.911Z,11.60
2018-05-04T09:20:14.545Z,11.60
2018-05-04T09:22:42.621Z,11.70
2018-05-04T09:25:11.558Z,11.90
2018-05-04T09:27:39.115Z,11.90
2018-05-04T09:30:06.638Z,12.00
2018-05-04T09:32:34.164Z,12.10
2018-05-04T09:35:01.708Z,12.20
2018-05-04T09:37:29.254Z,12.20
2018-05-04T09:39:56.778Z,12.20
2018-05-04T09:42:24.329Z,12.30
2018-05-04T09:44:51.833Z,12.30
2018-05-04T09:47:19.361Z,12.40
2018-05-04T09:49:46.898Z,12.40
2018-05-04T09:52:15.208Z,12.50
2018-05-04T09:54:42.758Z,12.50
2018-05-04T09:57:10.274Z,12.50
2018-05-04T09:59:37.781Z,12.50
2018-05-04T10:02:05.293Z,12.60
2018-05-04T10:04:32.841Z,12.80
2018-05-04T10:07:00.375Z,12.90
2018-05-04T10:09:28.008Z,12.90
2018-05-04T10:11:55.567Z,12.80
2018-05-04T10:14:23.100Z,12.90
2018-05-04T10:16:50.625Z,13.00
2018-05-04T10:19:18.137Z,13.00
2018-05-04T10:21:45.673Z,13.00
2018-05-04T10:24:13.980Z,13.20
2018-05-04T10:26:41.505Z,13.20
2018-05-04T10:29:09.026Z,13.30
2018-05-04T10:31:37.600Z,13.20
2018-05-04T10:34:05.123Z,13.30
2018-05-04T10:36:32.637Z,13.30
2018-05-04T10:39:00.756Z,13.40
2018-05-04T10:41:28.221Z,13.50
2018-05-04T10:43:55.767Z,13.50
2018-05-04T10:46:23.293Z,13.50
2018-05-04T10:48:51.793Z,13.60
2018-05-04T10:51:20.082Z,13.70
2018-05-04T10:53:47.591Z,13.70
2018-05-04T10:56:15.194Z,13.90
2018-05-04T10:58:43.619Z,14.00
2018-05-04T11:01:11.326Z,14.10
2018-05-04T11:03:39.682Z,14.30
2018-05-04T11:06:07.157Z,14.30
2018-05-04T11:08:35.677Z,14.40
2018-05-04T11:11:03.980Z,14.30
2018-05-04T11:13:31.473Z,14.30
2018-05-04T11:15:59.763Z,14.50
2018-05-04T11:18:27.287Z,14.40
2018-05-04T11:20:54.820Z,14.50
2018-05-04T11:23:22.379Z,14.80
2018-05-04T11:25:49.915Z,14.70
2018-05-04T11:28:17.445Z,14.70
2018-05-04T11:30:45.723Z,14.90
2018-05-04T11:33:14.007Z,15.10
2018-05-04T11:35:41.548Z,15.00
2018-05-04T11:38:09.142Z,15.20
2018-05-04T11:40:36.665Z,15.40
2018-05-04T11:43:04.205Z,15.30
2018-05-04T11:45:31.743Z,15.40
2018-05-04T11:47:59.337Z,15.30
2018-05-04T11:50:27.648Z,15.40
2018-05-04T11:52:55.163Z,15.40
2018-05-04T11:55:23.352Z,15.50
2018-05-04T11:57:51.643Z,15.90
2018-05-04T12:00:19.260Z,15.80
2018-05-04T12:02:46.770Z,16.10
2018-05-04T12:05:14.301Z,16.30
2018-05-04T12:07:41.854Z,16.40
2018-05-04T12:10:09.391Z,16.50
2018-05-04T12:12:36.925Z,16.90
2018-05-04T12:15:04.451Z,17.10
2018-05-04T12:17:32.729Z,17.20
2018-05-04T12:20:01.024Z,17.00
2018-05-04T12:22:28.591Z,17.00
2018-05-04T12:24:56.113Z,17.40
2018-05-04T12:27:24.402Z,17.90
2018-05-04T12:29:51.936Z,17.90
2018-05-04T12:32:19.488Z,18.40
2018-05-04T12:34:47.802Z,18.50
2018-05-04T12:37:15.343Z,18.50
2018-05-04T12:39:42.931Z,18.70
2018-05-04T12:42:10.490Z,18.60
2018-05-04T12:44:38.014Z,18.50
2018-05-04T12:47:06.329Z,18.30
2018-05-04T12:49:33.829Z,18.30
2018-05-04T12:52:01.355Z,18.40
2018-05-04T12:54:29.725Z,18.40
2018-05-04T12:56:57.253Z,18.40
2018-05-04T12:59:24.868Z,18.60
2018-05-04T13:01:52.393Z,19.10
2018-05-04T13:04:19.941Z,19.20
2018-05-04T13:06:47.495Z,19.10
2018-05-04T13:09:15.009Z,19.10
2018-05-04T13:11:42.640Z,19.80
2018-05-04T13:14:10.177Z,20.00
2018-05-04T13:16:37.709Z,20.20
2018-05-04T13:19:05.282Z,20.30
2018-05-04T13:21:33.575Z,20.90
2018-05-04T13:24:01.106Z,20.80
2018-05-04T13:26:28.640Z,20.90
2018-05-04T13:28:56.157Z,21.40
2018-05-04T13:31:23.690Z,21.60
2018-05-04T13:33:51.729Z,21.80
2018-05-04T13:36:19.319Z,22.10
2018-05-04T13:38:47.709Z,22.50
2018-05-04T13:41:15.241Z,22.50
2018-05-04T13:43:43.473Z,22.80
2018-05-04T13:46:10.997Z,22.80
2018-05-04T13:48:38.609Z,23.00
2018-05-04T13:51:06.971Z,23.50
2018-05-04T13:53:34.411Z,23.40
2018-05-04T13:56:01.928Z,23.70
2018-05-04T13:58:30.282Z,24.30
2018-05-04T14:00:57.799Z,24.20
2018-05-04T14:03:26.041Z,24.50
2018-05-04T14:05:53.587Z,23.90
2018-05-04T14:08:21.108Z,23.50
2018-05-04T14:10:49.367Z,23.70
2018-05-04T14:13:16.891Z,23.60
2018-05-04T14:15:44.467Z,24.00
2018-05-04T14:18:12.911Z,24.20
2018-05-04T14:20:40.433Z,24.10
2018-05-04T14:23:07.963Z,24.50
2018-05-04T14:25:35.545Z,24.40
2018-05-04T14:28:03.103Z,24.50
2018-05-04T14:30:31.214Z,24.60
2018-05-04T14:32:58.728Z,24.70
2018-05-04T14:35:27.563Z,24.80
2018-05-04T14:37:55.904Z,24.70
2018-05-04T14:40:23.423Z,24.60
2018-05-04T14:42:51.024Z,24.70
2018-05-04T14:45:18.493Z,24.80
2018-05-04T14:47:46.010Z,24.50
2018-05-04T14:50:13.543Z,24.60
2018-05-04T14:52:42.241Z,24.80
2018-05-04T14:55:10.601Z,24.60
2018-05-04T14:57:38.143Z,24.60
2018-05-04T15:00:05.710Z,24.70
2018-05-04T15:02:33.225Z,24.90
2018-05-04T15:05:00.773Z,24.70
2018-05-04T15:07:28.353Z,24.60
2018-05-04T15:09:56.713Z,24.90
2018-05-04T15:12:24.301Z,24.90
2018-05-04T15:14:51.863Z,25.20
2018-05-04T15:17:19.391Z,24.90
2018-05-04T15:19:46.916Z,24.90
2018-05-04T15:22:14.513Z,24.90
2018-05-04T15:24:42.049Z,24.60
2018-05-04T15:27:09.575Z,24.60
2018-05-04T15:29:37.119Z,24.50
2018-05-04T15:32:04.654Z,24.40
2018-05-04T15:34:32.167Z,24.50
2018-05-04T15:37:00.506Z,23.60
2018-05-04T15:39:28.015Z,23.60
2018-05-04T15:41:55.615Z,23.80
2018-05-04T15:44:23.251Z,24.10
2018-05-04T15:46:51.589Z,24.30
2018-05-04T15:49:19.117Z,24.20
2018-05-04T15:51:52.358Z,24.40
2018-05-04T15:54:20.696Z,24.30
2018-05-04T15:56:48.241Z,24.30
2018-05-04T15:59:15.778Z,24.50
2018-05-04T16:01:43.326Z,24.50
2018-05-04T16:04:11.525Z,24.60
2018-05-04T16:06:39.126Z,24.50
2018-05-04T16:09:07.409Z,24.00
2018-05-04T16:11:35.003Z,24.00
2018-05-04T16:14:03.303Z,23.80
2018-05-04T16:16:30.818Z,23.70
2018-05-04T16:18:59.136Z,23.50
2018-05-04T16:21:26.688Z,23.50
2018-05-04T16:23:54.204Z,23.40
2018-05-04T16:26:21.747Z,23.30
2018-05-04T16:28:49.380Z,23.10
2018-05-04T16:31:17.050Z,22.80
2018-05-04T16:33:45.702Z,22.50
2018-05-04T16:36:14.351Z,22.30
2018-05-04T16:38:42.560Z,22.30
2018-05-04T16:41:13.555Z,22.20
2018-05-04T16:43:42.590Z,21.70
2018-05-04T16:49:23.378Z,21.60
2018-05-04T16:51:50.950Z,21.50
2018-05-04T16:54:18.476Z,21.50
2018-05-04T16:56:46.367Z,21.30
2018-05-04T16:59:13.932Z,21.20
2018-05-04T17:01:41.540Z,21.10
2018-05-04T17:04:09.127Z,21.10
2018-05-04T17:06:36.991Z,21.00
2018-05-04T17:09:05.503Z,20.90
2018-05-04T17:11:34.248Z,20.90
2018-05-04T17:14:02.308Z,20.80
2018-05-04T17:16:29.864Z,20.70
2018-05-04T17:18:57.937Z,20.60
2018-05-04T17:21:26.368Z,20.40
2018-05-04T17:23:54.044Z,20.30
2018-05-04T17:26:21.652Z,20.10
2018-05-04T17:28:50.002Z,20.00
2018-05-04T17:31:17.599Z,20.00
2018-05-04T17:33:47.056Z,19.70
2018-05-04T17:36:14.592Z,19.70
2018-05-04T17:38:42.123Z,19.70
2018-05-04T17:41:09.650Z,19.50
2018-05-04T17:43:37.175Z,19.30
2018-05-04T17:46:04.747Z,19.20
2018-05-04T17:48:32.400Z,19.00
2018-05-04T17:50:59.965Z,18.90
2018-05-04T17:53:27.500Z,18.90
2018-05-04T17:55:55.037Z,18.70
2018-05-04T17:58:23.424Z,18.70
2018-05-04T18:00:50.946Z,18.60
2018-05-04T18:03:18.488Z,18.50
2018-05-04T18:05:46.029Z,18.50
2018-05-04T18:08:13.556Z,18.40
2018-05-04T18:10:41.842Z,18.20
2018-05-04T18:13:09.392Z,18.20
2018-05-04T18:15:37.081Z,18.10
2018-05-04T18:18:04.635Z,17.80
2018-05-04T18:20:32.180Z,17.70
2018-05-04T18:22:59.710Z,17.50
2018-05-04T18:25:27.222Z,17.30
2018-05-04T18:27:54.748Z,17.20
2018-05-04T18:30:23.121Z,17.00
2018-05-04T18:32:51.471Z,16.80
2018-05-04T18:35:18.993Z,16.80
2018-05-04T18:37:46.544Z,16.50
2018-05-04T18:40:14.049Z,16.40
2018-05-04T18:42:41.566Z,16.30
2018-05-04T18:45:09.102Z,16.20
2018-05-04T18:47:36.636Z,16.20
2018-05-04T18:50:04.323Z,15.90
2018-05-04T18:52:31.860Z,15.70
2018-05-04T18:55:00.170Z,15.60
2018-05-04T18:57:27.720Z,15.50
2018-05-04T18:59:55.233Z,15.40
2018-05-04T19:02:29.914Z,15.30
2018-05-04T19:04:57.427Z,15.10
2018-05-04T19:07:25.025Z,15.00
2018-05-04T19:09:52.635Z,14.90
2018-05-04T19:12:20.159Z,14.80
2018-05-04T19:14:47.990Z,14.80
2018-05-04T19:17:15.638Z,14.70
2018-05-04T19:19:44.096Z,14.50
2018-05-04T19:22:11.737Z,14.50
2018-05-04T19:24:39.304Z,14.40
2018-05-04T19:27:06.888Z,14.40
2018-05-04T19:29:35.327Z,14.30
2018-05-04T19:32:03.031Z,14.30
2018-05-04T19:34:32.122Z,14.10
2018-05-04T19:37:01.409Z,14.00
2018-05-04T19:39:29.010Z,14.00
2018-05-04T19:41:56.668Z,13.90
2018-05-04T19:44:24.283Z,13.80
2018-05-04T19:46:51.897Z,13.80
2018-05-04T19:49:19.509Z,13.80
2018-05-04T19:51:47.046Z,13.60
2018-05-04T19:54:14.652Z,13.60
2018-05-04T19:56:43.005Z,13.50
2018-05-04T19:59:10.521Z,13.50
2018-05-04T20:01:38.056Z,13.40
2018-05-04T20:04:06.363Z,13.30
2018-05-04T20:06:33.975Z,13.30
2018-05-04T20:09:01.505Z,13.30
2018-05-04T20:11:29.023Z,13.20
2018-05-04T20:13:56.550Z,13.30
2018-05-04T20:16:24.075Z,13.10
2018-05-04T20:18:51.687Z,13.10
2018-05-04T20:21:19.181Z,13.10
2018-05-04T20:23:46.706Z,13.10
2018-05-04T20:26:14.987Z,12.80
2018-05-04T20:28:42.543Z,12.80
2018-05-04T20:31:10.823Z,12.80
2018-05-04T20:33:39.170Z,12.70
2018-05-04T20:36:06.697Z,12.70
2018-05-04T20:38:34.226Z,12.60
2018-05-04T20:41:01.745Z,12.50
2018-05-04T20:43:29.303Z,12.60
2018-05-04T20:45:56.848Z,12.60
2018-05-04T20:48:24.421Z,12.50
2018-05-04T20:50:51.943Z,12.50
2018-05-04T20:53:19.454Z,12.50
2018-05-04T20:55:46.980Z,12.40
2018-05-04T20:58:15.276Z,12.30
2018-05-04T21:00:42.790Z,12.30
2018-05-04T21:03:10.330Z,12.30
2018-05-04T21:05:37.873Z,12.30
2018-05-04T21:08:06.157Z,12.10
2018-05-04T21:10:34.448Z,12.00
2018-05-04T21:13:01.963Z,12.00
2018-05-04T21:15:29.479Z,12.00
2018-05-04T21:17:57.009Z,11.90
2018-05-04T21:20:24.634Z,11.90
2018-05-04T21:22:52.150Z,11.90
2018-05-04T21:25:19.692Z,11.80
2018-05-04T21:27:47.212Z,11.80
2018-05-04T21:30:14.758Z,11.90
2018-05-04T21:32:42.270Z,11.80
2018-05-04T21:35:09.786Z,11.80
2018-05-04T21:37:37.301Z,11.80
2018-05-04T21:40:04.833Z,11.80
2018-05-04T21:42:33.113Z,11.70
2018-05-04T21:45:00.668Z,11.70
2018-05-04T21:47:28.971Z,11.60
2018-05-04T21:49:56.492Z,11.60
2018-05-04T21:52:24.823Z,11.60
2018-05-04T21:54:52.358Z,11.60
2018-05-04T21:57:19.889Z,11.60
2018-05-04T21:59:47.418Z,11.50
2018-05-04T22:02:14.948Z,11.50
2018-05-04T22:04:42.496Z,11.40
2018-05-04T22:07:10.168Z,11.50
2018-05-04T22:09:37.715Z,11.50
2018-05-04T22:12:05.252Z,11.50
2018-05-04T22:14:32.778Z,11.60
2018-05-04T22:17:00.290Z,11.50
2018-05-04T22:19:27.816Z,11.40
2018-05-04T22:21:55.404Z,11.40
2018-05-04T22:24:22.925Z,11.30
2018-05-04T22:26:50.470Z,11.30
2018-05-04T22:29:17.982Z,11.40
2018-05-04T22:31:45.547Z,11.20
2018-05-04T22:34:13.084Z,11.20
2018-05-04T22:36:40.613Z,11.30
2018-05-04T22:39:08.139Z,11.30
2018-05-04T22:41:35.665Z,11.10
2018-05-04T22:44:03.203Z,11.10
2018-05-04T22:46:30.755Z,11.10
2018-05-04T22:48:59.046Z,11.10
2018-05-04T22:51:26.584Z,11.10
2018-05-04T22:53:54.100Z,11.20
2018-05-04T22:56:22.386Z,11.20
2018-05-04T22:58:49.894Z,11.20
2018-05-04T23:01:18.180Z,11.10
2018-05-04T23:03:45.718Z,11.00
2018-05-04T23:06:13.244Z,11.00
2018-05-04T23:08:40.798Z,11.00
2018-05-04T23:11:08.336Z,10.90
2018-05-04T23:13:35.845Z,10.80
2018-05-04T23:16:04.138Z,10.60
2018-05-04T23:18:32.422Z,10.50
2018-05-04T23:20:59.969Z,10.50
2018-05-04T23:23:27.515Z,10.50
2018-05-04T23:25:55.795Z,10.30
2018-05-04T23:28:24.090Z,10.10
2018-05-04T23:30:51.617Z,10.10
2018-05-04T23:33:19.190Z,10.10
2018-05-04T23:35:47.462Z,10.00
2018-05-04T23:38:15.766Z,10.00
2018-05-04T23:40:43.284Z,10.00
2018-05-04T23:43:10.838Z,10.10
2018-05-04T23:45:38.362Z,10.00
2018-05-04T23:48:06.391Z,10.10
2018-05-04T23:50:34.684Z,10.40
2018-05-04T23:53:02.194Z,10.40
2018-05-04T23:55:29.713Z,10.30
2018-05-04T23:57:57.236Z,10.20
